Sheffield, United Kingdom
Current Conditions -  °F | °C
As of 9:20 AM on Thursday 27 Nov 2014 (Local Time) from EGCN Reporting Station
Moderate Fog Moderate Fog  
Wind Chill: 45°   Ceiling: 100
Heat Index: 45°   Visibility: 0.12mi
Dew Point: 45°   Wind: 2mph
Humidity: 100%   Direction: 10°N
Pressure: 29.65"   Gusts: NA
Location:  53.38°N, 1.46°W
Report Text: EGCN 270920Z 01002KT 0200 R20/0175 FG OVC001 07/07 Q1004
Loading
Personal Weather Stations






























Interactive Weather Map New forecast layout! Learn more

10-Day Weather Forecast

Advertisements
Track Severe Weather on mobile